This is the latest recevied weather packets stored in our database for station/object DG5MG. If no packets are shown the sender has not sent any weather packets the latest 10 day(s).
| Time | Temp. | Humidity | Pressure | Rain* | Wind** | Luminosity | Snow |
|---|---|---|---|---|---|---|---|
| 1777441207 | 8.89° C | 62% | 1024 hPa | 0 mm | - | 0 W/m² | - |
| 1777440906 | 8.89° C | 63% | 1024 hPa | 0 mm | - | 0 W/m² | - |
| 1777440006 | 8.89° C | 65% | 1024 hPa | 0 mm | - | 0 W/m² | - |
| 1777437606 | 8.33° C | 66% | 1023.7 hPa | 0 mm | - | 0 W/m² | - |
| 1777436706 | 8.33° C | 66% | 1023.7 hPa | 0 mm | - | 0 W/m² | - |
| 1777434606 | 8.89° C | 65% | 1023 hPa | 0 mm | - | 0 W/m² | - |
| 1777431908 | 9.44° C | 62% | 1023 hPa | 0 mm | - | 0 W/m² | - |
| 1777429205 | 10° C | 60% | 1022.7 hPa | 0 mm | - | 0 W/m² | - |
| 1777420805 | 11.67° C | 60% | 1022.7 hPa | 0 mm | - | 0 W/m² | - |
| 1777416305 | 11.67° C | 61% | 1022.7 hPa | 0 mm | - | 0 W/m² | - |
| 1777415105 | 12.22° C | 61% | 1022.4 hPa | 0 mm | - | 0 W/m² | - |
| 1777411805 | 13.33° C | 57% | 1022.4 hPa | 0 mm | - | 0 W/m² | - |
| 1777410905 | 13.33° C | 55% | 1022.7 hPa | 0 mm | - | 0 W/m² | - |
| 1777410305 | 13.33° C | 54% | 1022.4 hPa | 0 mm | - | 0 W/m² | - |
| 1777409405 | 13.89° C | 53% | 1022 hPa | 0 mm | - | 0 W/m² | - |
| 1777405505 | 14.44° C | 50% | 1022 hPa | 0 mm | - | 0 W/m² | - |
| 1777402505 | 15.56° C | 47% | 1021.7 hPa | 0 mm | - | 0 W/m² | - |
| 1777397405 | 17.22° C | 41% | 1021 hPa | 0 mm | - | 31 W/m² | - |
| 1777397105 | 17.22° C | 40% | 1021 hPa | 0 mm | - | 1 W/m² | - |
| 1777396505 | 17.22° C | 40% | 1021 hPa | 0 mm | - | 15 W/m² | - |
| 1777395606 | 17.78° C | 40% | 1021 hPa | 0 mm | - | 87 W/m² | - |
| 1777395005 | 17.78° C | 39% | 1020.9 hPa | 0 mm | - | 123 W/m² | - |
| 1777394405 | 18.33° C | 39% | 1021 hPa | 0 mm | - | 162 W/m² | - |
| 1777392306 | 18.89° C | 36% | 1020.7 hPa | 0 mm | - | 311 W/m² | - |
| 1777391705 | 19.44° C | 35% | 1020.7 hPa | 0 mm | - | 357 W/m² | - |
* Rain latest hour (hover to see other rain measurements)
** Current wind speed in m/s (hover to see current wind gust speed)